sensor_id;sensor_type;location;lat;lon;timestamp;pressure;altitude;pressure_sealevel;temperature;humidity
23307;BME280;11822;52.470;10.688;2022-07-01T00:01:25;100307.41;;;24.79;52.90
23307;BME280;11822;52.470;10.688;2022-07-01T00:03:50;100294.66;;;24.78;52.55
23307;BME280;11822;52.470;10.688;2022-07-01T00:06:19;100266.50;;;24.72;53.18
23307;BME280;11822;52.470;10.688;2022-07-01T00:08:45;100274.88;;;24.72;53.23
23307;BME280;11822;52.470;10.688;2022-07-01T00:11:11;100294.84;;;24.71;52.87
23307;BME280;11822;52.470;10.688;2022-07-01T00:13:37;100295.59;;;24.71;52.99
23307;BME280;11822;52.470;10.688;2022-07-01T00:16:03;100303.97;;;24.71;53.22
23307;BME280;11822;52.470;10.688;2022-07-01T00:18:29;100301.72;;;24.66;53.37
23307;BME280;11822;52.470;10.688;2022-07-01T00:20:54;100304.97;;;24.64;53.02
23307;BME280;11822;52.470;10.688;2022-07-01T00:23:19;100307.75;;;24.64;53.00
23307;BME280;11822;52.470;10.688;2022-07-01T00:25:45;100292.75;;;24.58;53.56
23307;BME280;11822;52.470;10.688;2022-07-01T00:28:11;100298.34;;;24.58;53.44
23307;BME280;11822;52.470;10.688;2022-07-01T00:30:37;100307.59;;;24.55;53.25
23307;BME280;11822;52.470;10.688;2022-07-01T00:33:02;100310.91;;;24.50;53.57
23307;BME280;11822;52.470;10.688;2022-07-01T00:35:28;100304.88;;;24.52;53.50
23307;BME280;11822;52.470;10.688;2022-07-01T00:37:53;100303.66;;;24.53;53.52
23307;BME280;11822;52.470;10.688;2022-07-01T00:40:18;100308.81;;;24.54;53.67
23307;BME280;11822;52.470;10.688;2022-07-01T00:42:44;100310.81;;;24.54;53.75
23307;BME280;11822;52.470;10.688;2022-07-01T00:45:10;100301.66;;;24.53;53.42
23307;BME280;11822;52.470;10.688;2022-07-01T00:47:37;100318.84;;;24.52;53.75
23307;BME280;11822;52.470;10.688;2022-07-01T00:50:07;100314.94;;;24.49;53.80
23307;BME280;11822;52.470;10.688;2022-07-01T00:52:33;100309.88;;;24.44;54.27
23307;BME280;11822;52.470;10.688;2022-07-01T00:55:02;100308.31;;;24.43;54.13
23307;BME280;11822;52.470;10.688;2022-07-01T00:57:35;100306.38;;;24.40;54.31
23307;BME280;11822;52.470;10.688;2022-07-01T01:00:06;100316.41;;;24.37;53.87
23307;BME280;11822;52.470;10.688;2022-07-01T01:02:32;100316.84;;;24.35;53.92
23307;BME280;11822;52.470;10.688;2022-07-01T01:04:58;100312.13;;;24.32;53.74
23307;BME280;11822;52.470;10.688;2022-07-01T01:07:23;100317.47;;;24.27;53.58
23307;BME280;11822;52.470;10.688;2022-07-01T01:09:50;100317.19;;;24.21;53.91
23307;BME280;11822;52.470;10.688;2022-07-01T01:12:16;100320.50;;;24.16;53.62
23307;BME280;11822;52.470;10.688;2022-07-01T01:14:48;100324.59;;;24.11;53.71
23307;BME280;11822;52.470;10.688;2022-07-01T01:17:15;100333.50;;;24.06;53.19
23307;BME280;11822;52.470;10.688;2022-07-01T01:19:41;100328.91;;;23.96;53.38
23307;BME280;11822;52.470;10.688;2022-07-01T01:22:07;100354.09;;;23.92;53.88
23307;BME280;11822;52.470;10.688;2022-07-01T01:24:32;100356.16;;;23.88;54.11
23307;BME280;11822;52.470;10.688;2022-07-01T01:26:58;100363.75;;;23.87;53.84
23307;BME280;11822;52.470;10.688;2022-07-01T01:29:23;100369.75;;;23.86;54.19
23307;BME280;11822;52.470;10.688;2022-07-01T01:31:48;100375.78;;;23.84;54.44
23307;BME280;11822;52.470;10.688;2022-07-01T01:34:14;100390.22;;;23.79;54.20
23307;BME280;11822;52.470;10.688;2022-07-01T01:36:39;100399.44;;;23.76;54.61
23307;BME280;11822;52.470;10.688;2022-07-01T01:39:05;100397.97;;;23.71;55.11
23307;BME280;11822;52.470;10.688;2022-07-01T01:41:43;100399.75;;;23.61;55.35
23307;BME280;11822;52.470;10.688;2022-07-01T01:44:08;100392.69;;;23.57;55.49
23307;BME280;11822;52.470;10.688;2022-07-01T01:46:34;100384.88;;;23.48;55.62
23307;BME280;11822;52.470;10.688;2022-07-01T01:49:00;100382.16;;;23.44;55.90
23307;BME280;11822;52.470;10.688;2022-07-01T01:51:26;100382.75;;;23.36;55.79
23307;BME280;11822;52.470;10.688;2022-07-01T01:53:51;100383.97;;;23.35;56.06
23307;BME280;11822;52.470;10.688;2022-07-01T01:56:17;100386.38;;;23.33;56.26
23307;BME280;11822;52.470;10.688;2022-07-01T01:58:42;100376.94;;;23.26;56.34
23307;BME280;11822;52.470;10.688;2022-07-01T02:01:09;100379.38;;;23.24;56.83
23307;BME280;11822;52.470;10.688;2022-07-01T02:03:35;100382.94;;;23.25;56.80
23307;BME280;11822;52.470;10.688;2022-07-01T02:06:02;100387.72;;;23.24;56.63
23307;BME280;11822;52.470;10.688;2022-07-01T02:08:27;100395.66;;;23.26;57.00
23307;BME280;11822;52.470;10.688;2022-07-01T02:10:53;100411.59;;;23.25;56.85
23307;BME280;11822;52.470;10.688;2022-07-01T02:13:18;100415.19;;;23.22;57.21
23307;BME280;11822;52.470;10.688;2022-07-01T02:15:43;100430.75;;;23.23;57.02
23307;BME280;11822;52.470;10.688;2022-07-01T02:18:09;100436.31;;;23.23;57.39
23307;BME280;11822;52.470;10.688;2022-07-01T02:20:34;100446.66;;;23.23;57.55
23307;BME280;11822;52.470;10.688;2022-07-01T02:22:59;100460.19;;;23.24;57.69
23307;BME280;11822;52.470;10.688;2022-07-01T02:25:25;100469.34;;;23.21;57.40
23307;BME280;11822;52.470;10.688;2022-07-01T02:27:50;100475.34;;;23.20;57.56
23307;BME280;11822;52.470;10.688;2022-07-01T02:30:16;100471.78;;;23.19;57.55
23307;BME280;11822;52.470;10.688;2022-07-01T02:32:41;100462.63;;;23.18;57.75
23307;BME280;11822;52.470;10.688;2022-07-01T02:35:08;100455.91;;;23.16;57.52
23307;BME280;11822;52.470;10.688;2022-07-01T02:37:33;100455.91;;;23.16;58.05
23307;BME280;11822;52.470;10.688;2022-07-01T02:39:59;100461.84;;;23.18;57.75
23307;BME280;11822;52.470;10.688;2022-07-01T02:42:24;100465.88;;;23.13;57.71
23307;BME280;11822;52.470;10.688;2022-07-01T02:44:54;100471.53;;;23.10;57.81
23307;BME280;11822;52.470;10.688;2022-07-01T02:47:20;100468.03;;;23.06;57.97
23307;BME280;11822;52.470;10.688;2022-07-01T02:49:46;100475.66;;;23.01;58.35
23307;BME280;11822;52.470;10.688;2022-07-01T02:52:11;100484.00;;;23.01;58.60
23307;BME280;11822;52.470;10.688;2022-07-01T02:54:37;100527.91;;;22.94;59.35
23307;BME280;11822;52.470;10.688;2022-07-01T02:57:02;100541.50;;;22.88;59.71
23307;BME280;11822;52.470;10.688;2022-07-01T02:59:28;100551.22;;;22.76;59.88
23307;BME280;11822;52.470;10.688;2022-07-01T03:01:54;100564.88;;;22.67;60.07
23307;BME280;11822;52.470;10.688;2022-07-01T03:04:19;100570.94;;;22.58;60.22
23307;BME280;11822;52.470;10.688;2022-07-01T03:06:45;100582.97;;;22.51;60.29
23307;BME280;11822;52.470;10.688;2022-07-01T03:09:10;100608.50;;;22.42;60.79
23307;BME280;11822;52.470;10.688;2022-07-01T03:11:36;100612.56;;;22.34;61.17
23307;BME280;11822;52.470;10.688;2022-07-01T03:14:01;100607.44;;;22.29;61.19
23307;BME280;11822;52.470;10.688;2022-07-01T03:16:26;100615.81;;;22.25;60.98
23307;BME280;11822;52.470;10.688;2022-07-01T03:18:52;100609.47;;;22.25;61.50
23307;BME280;11822;52.470;10.688;2022-07-01T03:21:17;100611.47;;;22.24;61.35
23307;BME280;11822;52.470;10.688;2022-07-01T03:23:42;100593.25;;;22.20;61.34
23307;BME280;11822;52.470;10.688;2022-07-01T03:26:08;100599.22;;;22.18;61.43
23307;BME280;11822;52.470;10.688;2022-07-01T03:28:33;100585.34;;;22.14;61.11
23307;BME280;11822;52.470;10.688;2022-07-01T03:31:00;100576.19;;;22.14;60.63
23307;BME280;11822;52.470;10.688;2022-07-01T03:33:25;100558.44;;;22.04;60.64
23307;BME280;11822;52.470;10.688;2022-07-01T03:35:51;100539.50;;;21.92;60.63
23307;BME280;11822;52.470;10.688;2022-07-01T03:38:16;100547.91;;;21.84;60.61
23307;BME280;11822;52.470;10.688;2022-07-01T03:40:42;100536.47;;;21.75;60.24
23307;BME280;11822;52.470;10.688;2022-07-01T03:43:07;100532.66;;;21.62;60.75
23307;BME280;11822;52.470;10.688;2022-07-01T03:45:33;100541.03;;;21.54;60.25
23307;BME280;11822;52.470;10.688;2022-07-01T03:47:58;100532.41;;;21.41;60.45
23307;BME280;11822;52.470;10.688;2022-07-01T03:50:24;100551.91;;;21.38;60.96
23307;BME280;11822;52.470;10.688;2022-07-01T03:52:51;100548.75;;;21.32;61.26
23307;BME280;11822;52.470;10.688;2022-07-01T03:55:35;100557.91;;;21.29;60.82
23307;BME280;11822;52.470;10.688;2022-07-01T03:58:00;100559.91;;;21.25;61.12
23307;BME280;11822;52.470;10.688;2022-07-01T04:00:26;100560.31;;;21.27;61.09
23307;BME280;11822;52.470;10.688;2022-07-01T04:02:52;100559.09;;;21.28;61.24
23307;BME280;11822;52.470;10.688;2022-07-01T04:05:17;100558.75;;;21.22;61.14
23307;BME280;11822;52.470;10.688;2022-07-01T04:07:42;100572.69;;;21.19;61.16
23307;BME280;11822;52.470;10.688;2022-07-01T04:10:08;100576.25;;;21.19;61.63
23307;BME280;11822;52.470;10.688;2022-07-01T04:12:33;100589.75;;;21.17;61.47
23307;BME280;11822;52.470;10.688;2022-07-01T04:14:58;100600.09;;;21.13;61.69
23307;BME280;11822;52.470;10.688;2022-07-01T04:17:24;100590.22;;;21.08;61.43
23307;BME280;11822;52.470;10.688;2022-07-01T04:19:49;100587.00;;;21.10;60.87
23307;BME280;11822;52.470;10.688;2022-07-01T04:22:15;100583.06;;;21.07;61.02
23307;BME280;11822;52.470;10.688;2022-07-01T04:25:06;100589.44;;;21.01;60.89
23307;BME280;11822;52.470;10.688;2022-07-01T04:27:32;100594.63;;;20.99;60.81
23307;BME280;11822;52.470;10.688;2022-07-01T04:29:58;100591.88;;;20.95;60.68
23307;BME280;11822;52.470;10.688;2022-07-01T04:32:24;100596.28;;;20.85;60.34
23307;BME280;11822;52.470;10.688;2022-07-01T04:34:49;100593.53;;;20.81;60.32
23307;BME280;11822;52.470;10.688;2022-07-01T04:37:16;100591.16;;;20.80;60.15
23307;BME280;11822;52.470;10.688;2022-07-01T04:39:41;100603.88;;;20.77;60.54
23307;BME280;11822;52.470;10.688;2022-07-01T04:42:07;100604.25;;;20.79;60.44
23307;BME280;11822;52.470;10.688;2022-07-01T04:44:36;100602.25;;;20.80;60.41
23307;BME280;11822;52.470;10.688;2022-07-01T04:47:04;100598.69;;;20.79;60.10
23307;BME280;11822;52.470;10.688;2022-07-01T04:49:29;100597.91;;;20.79;60.57
23307;BME280;11822;52.470;10.688;2022-07-01T04:51:56;100613.34;;;20.80;60.94
23307;BME280;11822;52.470;10.688;2022-07-01T04:54:22;100636.34;;;20.77;60.79
23307;BME280;11822;52.470;10.688;2022-07-01T04:56:48;100649.06;;;20.74;60.57
23307;BME280;11822;52.470;10.688;2022-07-01T04:59:14;100641.56;;;20.67;60.74
23307;BME280;11822;52.470;10.688;2022-07-01T05:01:44;100654.66;;;20.63;61.00
23307;BME280;11822;52.470;10.688;2022-07-01T05:04:11;100665.34;;;20.58;61.17
23307;BME280;11822;52.470;10.688;2022-07-01T05:06:37;100666.97;;;20.55;61.28
23307;BME280;11822;52.470;10.688;2022-07-01T05:09:02;100678.84;;;20.56;61.83
23307;BME280;11822;52.470;10.688;2022-07-01T05:11:28;100682.00;;;20.58;61.71
23307;BME280;11822;52.470;10.688;2022-07-01T05:13:53;100670.91;;;20.58;61.82
23307;BME280;11822;52.470;10.688;2022-07-01T05:16:19;100670.91;;;20.58;61.72
23307;BME280;11822;52.470;10.688;2022-07-01T05:18:44;100669.34;;;20.53;61.83
23307;BME280;11822;52.470;10.688;2022-07-01T05:21:28;100671.72;;;20.51;61.64
23307;BME280;11822;52.470;10.688;2022-07-01T05:24:12;100683.63;;;20.48;61.50
23307;BME280;11822;52.470;10.688;2022-07-01T05:26:38;100694.34;;;20.46;61.28
23307;BME280;11822;52.470;10.688;2022-07-01T05:29:04;100692.38;;;20.43;61.53
23307;BME280;11822;52.470;10.688;2022-07-01T05:31:29;100703.44;;;20.39;61.31
23307;BME280;11822;52.470;10.688;2022-07-01T05:33:54;100702.28;;;20.33;61.23
23307;BME280;11822;52.470;10.688;2022-07-01T05:36:20;100709.84;;;20.29;61.59
23307;BME280;11822;52.470;10.688;2022-07-01T05:38:45;100713.00;;;20.31;60.96
23307;BME280;11822;52.470;10.688;2022-07-01T05:41:12;100703.88;;;20.23;61.31
23307;BME280;11822;52.470;10.688;2022-07-01T05:43:37;100711.00;;;20.24;60.91
23307;BME280;11822;52.470;10.688;2022-07-01T05:46:02;100710.63;;;20.22;60.96
23307;BME280;11822;52.470;10.688;2022-07-01T05:48:28;100707.06;;;20.18;60.73
23307;BME280;11822;52.470;10.688;2022-07-01T05:50:53;100719.34;;;20.17;60.72
23307;BME280;11822;52.470;10.688;2022-07-01T05:53:19;100718.53;;;20.13;60.88
23307;BME280;11822;52.470;10.688;2022-07-01T05:55:44;100707.06;;;20.11;60.66
23307;BME280;11822;52.470;10.688;2022-07-01T05:58:10;100709.44;;;20.05;60.48
23307;BME280;11822;52.470;10.688;2022-07-01T06:00:36;100710.63;;;20.04;60.54
23307;BME280;11822;52.470;10.688;2022-07-01T06:03:03;100718.53;;;20.05;60.57
23307;BME280;11822;52.470;10.688;2022-07-01T06:05:28;100712.22;;;20.05;60.68
23307;BME280;11822;52.470;10.688;2022-07-01T06:07:55;100707.88;;;20.04;60.55
23307;BME280;11822;52.470;10.688;2022-07-01T06:10:20;100710.63;;;20.07;60.06
23307;BME280;11822;52.470;10.688;2022-07-01T06:12:46;100713.00;;;20.02;60.70
23307;BME280;11822;52.470;10.688;2022-07-01T06:15:12;100730.03;;;20.04;60.61
23307;BME280;11822;52.470;10.688;2022-07-01T06:17:39;100737.94;;;19.98;60.65
23307;BME280;11822;52.470;10.688;2022-07-01T06:20:06;100742.31;;;19.99;60.23
23307;BME280;11822;52.470;10.688;2022-07-01T06:22:32;100745.88;;;20.00;60.68
23307;BME280;11822;52.470;10.688;2022-07-01T06:24:58;100733.97;;;19.99;60.04
23307;BME280;11822;52.470;10.688;2022-07-01T06:27:24;100733.59;;;20.01;60.29
23307;BME280;11822;52.470;10.688;2022-07-01T06:29:50;100730.03;;;20.07;60.29
23307;BME280;11822;52.470;10.688;2022-07-01T06:32:15;100728.84;;;20.12;60.00
23307;BME280;11822;52.470;10.688;2022-07-01T06:34:41;100741.13;;;20.15;59.72
23307;BME280;11822;52.470;10.688;2022-07-01T06:37:06;100732.81;;;20.22;60.07
23307;BME280;11822;52.470;10.688;2022-07-01T06:39:31;100745.09;;;20.28;59.92
23307;BME280;11822;52.470;10.688;2022-07-01T06:41:57;100746.28;;;20.34;59.88
23307;BME280;11822;52.470;10.688;2022-07-01T06:44:22;100751.81;;;20.42;59.44
23307;BME280;11822;52.470;10.688;2022-07-01T06:46:48;100747.44;;;20.48;59.29
23307;BME280;11822;52.470;10.688;2022-07-01T06:49:13;100750.63;;;20.50;59.47
23307;BME280;11822;52.470;10.688;2022-07-01T06:51:39;100751.00;;;20.52;59.10
23307;BME280;11822;52.470;10.688;2022-07-01T06:54:04;100751.41;;;20.50;58.99
23307;BME280;11822;52.470;10.688;2022-07-01T06:56:30;100739.53;;;20.50;58.90
23307;BME280;11822;52.470;10.688;2022-07-01T06:58:55;100746.25;;;20.52;59.13
23307;BME280;11822;52.470;10.688;2022-07-01T07:01:22;100747.03;;;20.60;58.88
23307;BME280;11822;52.470;10.688;2022-07-01T07:03:47;100751.78;;;20.63;58.66
23307;BME280;11822;52.470;10.688;2022-07-01T07:06:12;100760.50;;;20.58;58.45
23307;BME280;11822;52.470;10.688;2022-07-01T07:08:38;100754.16;;;20.50;58.34
23307;BME280;11822;52.470;10.688;2022-07-01T07:11:03;100752.19;;;20.40;58.69
23307;BME280;11822;52.470;10.688;2022-07-01T07:13:29;100752.63;;;20.31;58.18
23307;BME280;11822;52.470;10.688;2022-07-01T07:15:54;100753.00;;;20.26;58.52
23307;BME280;11822;52.470;10.688;2022-07-01T07:18:20;100760.53;;;20.22;58.73
23307;BME280;11822;52.470;10.688;2022-07-01T07:20:46;100762.91;;;20.27;58.56
23307;BME280;11822;52.470;10.688;2022-07-01T07:23:13;100755.41;;;20.28;58.51
23307;BME280;11822;52.470;10.688;2022-07-01T07:25:38;100754.22;;;20.29;58.39
23307;BME280;11822;52.470;10.688;2022-07-01T07:28:04;100760.16;;;20.31;58.46
23307;BME280;11822;52.470;10.688;2022-07-01T07:30:29;100771.22;;;20.38;58.84
23307;BME280;11822;52.470;10.688;2022-07-01T07:32:54;100769.25;;;20.35;58.22
23307;BME280;11822;52.470;10.688;2022-07-01T07:35:20;100776.38;;;20.32;58.65
23307;BME280;11822;52.470;10.688;2022-07-01T07:37:45;100783.09;;;20.35;58.37
23307;BME280;11822;52.470;10.688;2022-07-01T07:40:12;100787.47;;;20.32;58.49
23307;BME280;11822;52.470;10.688;2022-07-01T07:42:43;100794.22;;;20.38;58.33
23307;BME280;11822;52.470;10.688;2022-07-01T07:45:09;100804.13;;;20.40;58.26
23307;BME280;11822;52.470;10.688;2022-07-01T07:47:36;100800.56;;;20.43;57.80
23307;BME280;11822;52.470;10.688;2022-07-01T07:50:03;100806.88;;;20.43;58.12
23307;BME280;11822;52.470;10.688;2022-07-01T07:52:29;100814.84;;;20.45;58.07
23307;BME280;11822;52.470;10.688;2022-07-01T07:54:55;100819.59;;;20.48;57.99
23307;BME280;11822;52.470;10.688;2022-07-01T07:57:20;100822.75;;;20.46;58.27
23307;BME280;11822;52.470;10.688;2022-07-01T07:59:45;100819.59;;;20.48;58.33
23307;BME280;11822;52.470;10.688;2022-07-01T08:02:11;100804.53;;;20.49;58.24
23307;BME280;11822;52.470;10.688;2022-07-01T08:04:36;100809.69;;;20.54;58.24
23307;BME280;11822;52.470;10.688;2022-07-01T08:07:02;100807.69;;;20.55;58.05
23307;BME280;11822;52.470;10.688;2022-07-01T08:09:27;100815.22;;;20.54;58.54
23307;BME280;11822;52.470;10.688;2022-07-01T08:11:53;100819.56;;;20.51;58.61
23307;BME280;11822;52.470;10.688;2022-07-01T08:14:19;100817.59;;;20.45;59.08
23307;BME280;11822;52.470;10.688;2022-07-01T08:16:44;100839.00;;;20.41;58.61
23307;BME280;11822;52.470;10.688;2022-07-01T08:19:10;100835.44;;;20.29;58.47
23307;BME280;11822;52.470;10.688;2022-07-01T08:21:35;100850.06;;;20.19;59.00
23307;BME280;11822;52.470;10.688;2022-07-01T08:24:01;100856.00;;;20.14;59.14
23307;BME280;11822;52.470;10.688;2022-07-01T08:26:26;100863.16;;;20.11;58.98
23307;BME280;11822;52.470;10.688;2022-07-01T08:28:51;100883.34;;;20.12;59.25
23307;BME280;11822;52.470;10.688;2022-07-01T08:31:17;100896.03;;;20.09;59.22
23307;BME280;11822;52.470;10.688;2022-07-01T08:33:42;100905.13;;;20.06;59.23
23307;BME280;11822;52.470;10.688;2022-07-01T08:36:08;100901.16;;;20.03;59.43
23307;BME280;11822;52.470;10.688;2022-07-01T08:38:35;100891.25;;;19.99;59.32
23307;BME280;11822;52.470;10.688;2022-07-01T08:41:02;100880.53;;;19.97;59.44
23307;BME280;11822;52.470;10.688;2022-07-01T08:43:29;100854.38;;;19.98;59.36
23307;BME280;11822;52.470;10.688;2022-07-01T08:45:55;100857.97;;;19.99;59.17
23307;BME280;11822;52.470;10.688;2022-07-01T08:48:23;100861.50;;;19.92;59.66
23307;BME280;11822;52.470;10.688;2022-07-01T08:50:48;100840.13;;;19.92;59.49
23307;BME280;11822;52.470;10.688;2022-07-01T08:53:13;100854.78;;;19.93;59.45
23307;BME280;11822;52.470;10.688;2022-07-01T08:55:39;100838.91;;;19.86;59.47
23307;BME280;11822;52.470;10.688;2022-07-01T08:58:25;100848.00;;;19.79;59.83
23307;BME280;11822;52.470;10.688;2022-07-01T09:00:51;100855.50;;;19.79;59.84
23307;BME280;11822;52.470;10.688;2022-07-01T09:03:21;100854.72;;;19.78;59.46
23307;BME280;11822;52.470;10.688;2022-07-01T09:05:51;100872.50;;;19.74;59.68
23307;BME280;11822;52.470;10.688;2022-07-01T09:08:18;100871.31;;;19.71;59.82
23307;BME280;11822;52.470;10.688;2022-07-01T09:10:44;100877.66;;;19.72;60.05
23307;BME280;11822;52.470;10.688;2022-07-01T09:13:11;100894.69;;;19.74;60.20
23307;BME280;11822;52.470;10.688;2022-07-01T09:15:39;100889.94;;;19.74;60.43
23307;BME280;11822;52.470;10.688;2022-07-01T09:20:36;100903.03;;;19.77;60.06
23307;BME280;11822;52.470;10.688;2022-07-01T09:23:10;100905.44;;;19.83;60.47
23307;BME280;11822;52.470;10.688;2022-07-01T09:30:34;100908.59;;;19.88;60.50
23307;BME280;11822;52.470;10.688;2022-07-01T09:35:36;100918.53;;;19.93;60.64
23307;BME280;11822;52.470;10.688;2022-07-01T09:38:03;100920.94;;;19.95;60.97
23307;BME280;11822;52.470;10.688;2022-07-01T09:43:34;100935.22;;;20.07;60.68
23307;BME280;11822;52.470;10.688;2022-07-01T09:46:08;100931.66;;;20.03;60.62
23307;BME280;11822;52.470;10.688;2022-07-01T09:50:59;100932.81;;;19.95;60.94
23307;BME280;11822;52.470;10.688;2022-07-01T09:53:25;100943.50;;;19.93;61.28
23307;BME280;11822;52.470;10.688;2022-07-01T09:55:51;100952.63;;;19.93;61.33
23307;BME280;11822;52.470;10.688;2022-07-01T09:58:16;100951.81;;;19.93;61.43
23307;BME280;11822;52.470;10.688;2022-07-01T10:00:42;100947.06;;;19.93;61.35
23307;BME280;11822;52.470;10.688;2022-07-01T10:03:07;100941.91;;;19.92;60.98
23307;BME280;11822;52.470;10.688;2022-07-01T10:13:23;100961.84;;;20.30;60.88
23307;BME280;11822;52.470;10.688;2022-07-01T10:15:51;100964.25;;;20.35;60.88
23307;BME280;11822;52.470;10.688;2022-07-01T10:18:24;100976.53;;;20.38;60.41
23307;BME280;11822;52.470;10.688;2022-07-01T10:20:51;100971.75;;;20.35;60.09
23307;BME280;11822;52.470;10.688;2022-07-01T10:23:20;100975.72;;;20.27;60.53
23307;BME280;11822;52.470;10.688;2022-07-01T10:25:47;100976.13;;;20.29;60.45
23307;BME280;11822;52.470;10.688;2022-07-01T10:28:26;100977.28;;;20.24;60.89
23307;BME280;11822;52.470;10.688;2022-07-01T10:43:58;100977.69;;;20.22;60.98
23307;BME280;11822;52.470;10.688;2022-07-01T10:46:45;100976.94;;;20.36;60.49
23307;BME280;11822;52.470;10.688;2022-07-01T10:51:55;100986.84;;;20.48;60.28
23307;BME280;11822;52.470;10.688;2022-07-01T10:59:41;101004.28;;;20.42;59.97
23307;BME280;11822;52.470;10.688;2022-07-01T11:02:15;101007.84;;;20.38;60.38
23307;BME280;11822;52.470;10.688;2022-07-01T11:04:40;101006.22;;;20.34;60.43
23307;BME280;11822;52.470;10.688;2022-07-01T11:07:06;100999.09;;;20.29;60.51
23307;BME280;11822;52.470;10.688;2022-07-01T11:09:31;101002.28;;;20.28;60.25
23307;BME280;11822;52.470;10.688;2022-07-01T11:11:57;101000.28;;;20.28;60.26
23307;BME280;11822;52.470;10.688;2022-07-01T11:14:22;101007.81;;;20.35;60.10
23307;BME280;11822;52.470;10.688;2022-07-01T11:16:48;101005.47;;;20.41;60.48
23307;BME280;11822;52.470;10.688;2022-07-01T11:19:17;101016.19;;;20.46;60.00
23307;BME280;11822;52.470;10.688;2022-07-01T11:21:48;101011.03;;;20.51;59.93
23307;BME280;11822;52.470;10.688;2022-07-01T11:24:14;101009.84;;;20.52;59.58
23307;BME280;11822;52.470;10.688;2022-07-01T11:26:41;101000.72;;;20.48;59.92
23307;BME280;11822;52.470;10.688;2022-07-01T11:29:13;101018.97;;;20.46;59.57
23307;BME280;11822;52.470;10.688;2022-07-01T11:31:39;101012.63;;;20.42;59.47
23307;BME280;11822;52.470;10.688;2022-07-01T11:34:05;101021.31;;;20.36;59.84
23307;BME280;11822;52.470;10.688;2022-07-01T11:36:32;101018.13;;;20.34;59.73
23307;BME280;11822;52.470;10.688;2022-07-01T11:39:17;101002.69;;;20.30;59.80
23307;BME280;11822;52.470;10.688;2022-07-01T11:41:59;100998.31;;;20.36;59.59
23307;BME280;11822;52.470;10.688;2022-07-01T11:47:02;101000.69;;;20.41;59.50
23307;BME280;11822;52.470;10.688;2022-07-01T11:49:28;101001.13;;;20.47;59.35
23307;BME280;11822;52.470;10.688;2022-07-01T11:54:21;101002.34;;;20.64;58.82
23307;BME280;11822;52.470;10.688;2022-07-01T11:56:47;101015.47;;;20.71;58.59
23307;BME280;11822;52.470;10.688;2022-07-01T11:59:13;101009.91;;;20.74;58.39
23307;BME280;11822;52.470;10.688;2022-07-01T12:01:39;101006.38;;;20.77;58.62
23307;BME280;11822;52.470;10.688;2022-07-01T12:04:07;101004.00;;;20.83;58.20
23307;BME280;11822;52.470;10.688;2022-07-01T12:06:34;101004.41;;;20.89;58.52
23307;BME280;11822;52.470;10.688;2022-07-01T12:09:02;101008.38;;;20.99;58.12
23307;BME280;11822;52.470;10.688;2022-07-01T12:11:28;101012.75;;;21.07;57.52
23307;BME280;11822;52.470;10.688;2022-07-01T12:13:54;101017.91;;;21.08;57.39
23307;BME280;11822;52.470;10.688;2022-07-01T12:16:21;101020.28;;;21.17;57.79
23307;BME280;11822;52.470;10.688;2022-07-01T12:19:05;101034.56;;;21.30;57.36
23307;BME280;11822;52.470;10.688;2022-07-01T12:21:30;101029.00;;;21.41;57.10
23307;BME280;11822;52.470;10.688;2022-07-01T12:24:13;101022.25;;;21.53;56.96
23307;BME280;11822;52.470;10.688;2022-07-01T12:27:03;101034.16;;;21.72;56.61
23307;BME280;11822;52.470;10.688;2022-07-01T12:29:32;101025.38;;;21.80;56.08
23307;BME280;11822;52.470;10.688;2022-07-01T12:37:15;101030.41;;;22.25;54.88
23307;BME280;11822;52.470;10.688;2022-07-01T12:39:45;101028.00;;;22.31;54.61
23307;BME280;11822;52.470;10.688;2022-07-01T12:44:57;101031.56;;;22.32;54.26
23307;BME280;11822;52.470;10.688;2022-07-01T12:47:31;101038.69;;;22.47;54.85
23307;BME280;11822;52.470;10.688;2022-07-01T12:55:23;101013.94;;;22.64;53.54
23307;BME280;11822;52.470;10.688;2022-07-01T12:57:53;101020.19;;;22.79;54.48
23307;BME280;11822;52.470;10.688;2022-07-01T13:00:21;101018.59;;;22.81;53.93
23307;BME280;11822;52.470;10.688;2022-07-01T13:02:50;101017.41;;;22.79;53.50
23307;BME280;11822;52.470;10.688;2022-07-01T13:05:15;101014.28;;;22.73;53.83
23307;BME280;11822;52.470;10.688;2022-07-01T13:07:40;101016.25;;;22.76;53.83
23307;BME280;11822;52.470;10.688;2022-07-01T13:10:06;101017.78;;;22.81;53.73
23307;BME280;11822;52.470;10.688;2022-07-01T13:12:32;101016.16;;;22.91;53.59
23307;BME280;11822;52.470;10.688;2022-07-01T13:14:57;101014.84;;;23.02;53.33
23307;BME280;11822;52.470;10.688;2022-07-01T13:17:24;101017.97;;;23.12;52.59
23307;BME280;11822;52.470;10.688;2022-07-01T13:19:49;101012.34;;;23.19;52.76
23307;BME280;11822;52.470;10.688;2022-07-01T13:22:15;101025.09;;;23.16;52.30
23307;BME280;11822;52.470;10.688;2022-07-01T13:24:40;101025.50;;;23.15;52.34
23307;BME280;11822;52.470;10.688;2022-07-01T13:27:06;101019.19;;;23.07;51.37
23307;BME280;11822;52.470;10.688;2022-07-01T13:29:34;101012.13;;;22.95;50.90
23307;BME280;11822;52.470;10.688;2022-07-01T13:32:00;101026.91;;;22.85;51.16
23307;BME280;11822;52.470;10.688;2022-07-01T13:34:26;101027.00;;;22.74;51.59
23307;BME280;11822;52.470;10.688;2022-07-01T13:36:51;101031.03;;;22.66;51.39
23307;BME280;11822;52.470;10.688;2022-07-01T13:39:17;101033.84;;;22.55;51.80
23307;BME280;11822;52.470;10.688;2022-07-01T13:41:42;101032.72;;;22.45;51.74